sensor_id;sensor_type;location;lat;lon;timestamp;pressure;altitude;pressure_sealevel;temperature;humidity
21361;BME280;10839;43.206;23.550;2022-11-18T00:00:56;96060.63;;;10.90;100.00
21361;BME280;10839;43.206;23.550;2022-11-18T00:03:23;96056.16;;;11.02;100.00
21361;BME280;10839;43.206;23.550;2022-11-18T00:05:56;96057.91;;;10.72;100.00
21361;BME280;10839;43.206;23.550;2022-11-18T00:08:28;96065.06;;;10.60;100.00
21361;BME280;10839;43.206;23.550;2022-11-18T00:10:55;96067.03;;;10.71;100.00
21361;BME280;10839;43.206;23.550;2022-11-18T00:13:20;96074.19;;;10.59;100.00
21361;BME280;10839;43.206;23.550;2022-11-18T00:16:10;96057.25;;;10.33;100.00
21361;BME280;10839;43.206;23.550;2022-11-18T00:18:38;96061.59;;;10.35;100.00
21361;BME280;10839;43.206;23.550;2022-11-18T00:21:06;96057.97;;;10.22;100.00
21361;BME280;10839;43.206;23.550;2022-11-18T00:23:33;96053.78;;;10.26;100.00
21361;BME280;10839;43.206;23.550;2022-11-18T00:26:10;96055.97;;;10.11;100.00
21361;BME280;10839;43.206;23.550;2022-11-18T00:28:37;96058.47;;;10.06;100.00
21361;BME280;10839;43.206;23.550;2022-11-18T00:31:09;96052.25;;;10.12;100.00
21361;BME280;10839;43.206;23.550;2022-11-18T00:33:36;96064.72;;;10.00;100.00
21361;BME280;10839;43.206;23.550;2022-11-18T00:36:03;96065.09;;;10.10;100.00
21361;BME280;10839;43.206;23.550;2022-11-18T00:38:30;96064.53;;;10.26;100.00
21361;BME280;10839;43.206;23.550;2022-11-18T00:41:03;96056.97;;;10.42;100.00
21361;BME280;10839;43.206;23.550;2022-11-18T00:43:31;96059.50;;;10.37;100.00
21361;BME280;10839;43.206;23.550;2022-11-18T00:45:57;96062.78;;;10.39;100.00
21361;BME280;10839;43.206;23.550;2022-11-18T00:48:23;96065.81;;;10.24;100.00
21361;BME280;10839;43.206;23.550;2022-11-18T00:50:51;96045.47;;;10.03;100.00
21361;BME280;10839;43.206;23.550;2022-11-18T00:53:20;96055.19;;;10.11;100.00
21361;BME280;10839;43.206;23.550;2022-11-18T00:55:47;96046.38;;;10.22;100.00
21361;BME280;10839;43.206;23.550;2022-11-18T00:58:13;96051.38;;;10.18;100.00
21361;BME280;10839;43.206;23.550;2022-11-18T01:00:45;96056.75;;;10.18;100.00
21361;BME280;10839;43.206;23.550;2022-11-18T01:03:13;96054.13;;;10.37;100.00
21361;BME280;10839;43.206;23.550;2022-11-18T01:05:39;96059.41;;;10.50;100.00
21361;BME280;10839;43.206;23.550;2022-11-18T01:08:07;96044.97;;;10.44;100.00
21361;BME280;10839;43.206;23.550;2022-11-18T01:10:35;96044.91;;;10.51;100.00
21361;BME280;10839;43.206;23.550;2022-11-18T01:13:02;96041.75;;;10.54;100.00
21361;BME280;10839;43.206;23.550;2022-11-18T01:15:46;96031.91;;;10.48;100.00
21361;BME280;10839;43.206;23.550;2022-11-18T01:18:14;96032.53;;;10.43;100.00
21361;BME280;10839;43.206;23.550;2022-11-18T01:20:40;96037.00;;;10.56;100.00
21361;BME280;10839;43.206;23.550;2022-11-18T01:23:06;96049.69;;;10.67;100.00
21361;BME280;10839;43.206;23.550;2022-11-18T01:25:35;96046.97;;;10.49;100.00
21361;BME280;10839;43.206;23.550;2022-11-18T01:28:02;96055.81;;;10.56;100.00
21361;BME280;10839;43.206;23.550;2022-11-18T01:30:28;96044.28;;;10.49;100.00
21361;BME280;10839;43.206;23.550;2022-11-18T01:32:54;96048.19;;;10.53;100.00
21361;BME280;10839;43.206;23.550;2022-11-18T01:35:20;96039.34;;;10.46;100.00
21361;BME280;10839;43.206;23.550;2022-11-18T01:37:46;96038.03;;;10.55;100.00
21361;BME280;10839;43.206;23.550;2022-11-18T01:40:12;96037.00;;;10.56;100.00
21361;BME280;10839;43.206;23.550;2022-11-18T01:42:38;96042.44;;;10.49;100.00
21361;BME280;10839;43.206;23.550;2022-11-18T01:47:52;96031.09;;;10.65;100.00
21361;BME280;10839;43.206;23.550;2022-11-18T01:50:21;96026.16;;;10.62;100.00
21361;BME280;10839;43.206;23.550;2022-11-18T01:52:48;96024.38;;;10.56;100.00
21361;BME280;10839;43.206;23.550;2022-11-18T01:55:20;96016.66;;;10.60;100.00
21361;BME280;10839;43.206;23.550;2022-11-18T01:57:49;96018.91;;;10.63;100.00
21361;BME280;10839;43.206;23.550;2022-11-18T02:00:18;96023.09;;;10.59;100.00
21361;BME280;10839;43.206;23.550;2022-11-18T02:02:44;96024.16;;;10.58;100.00
21361;BME280;10839;43.206;23.550;2022-11-18T02:05:10;96029.38;;;10.71;100.00
21361;BME280;10839;43.206;23.550;2022-11-18T02:07:40;96029.38;;;10.89;100.00
21361;BME280;10839;43.206;23.550;2022-11-18T02:10:08;96018.00;;;11.05;100.00
21361;BME280;10839;43.206;23.550;2022-11-18T02:12:36;96008.75;;;11.01;100.00
21361;BME280;10839;43.206;23.550;2022-11-18T02:15:03;96012.09;;;10.96;100.00
21361;BME280;10839;43.206;23.550;2022-11-18T02:18:02;96003.69;;;10.93;100.00
21361;BME280;10839;43.206;23.550;2022-11-18T02:20:37;95996.19;;;10.77;100.00
21361;BME280;10839;43.206;23.550;2022-11-18T02:34:21;95994.56;;;10.76;100.00
21361;BME280;10839;43.206;23.550;2022-11-18T02:36:57;96000.81;;;10.70;100.00
21361;BME280;10839;43.206;23.550;2022-11-18T02:39:32;96004.72;;;10.56;100.00
21361;BME280;10839;43.206;23.550;2022-11-18T02:42:03;96006.19;;;10.70;100.00
21361;BME280;10839;43.206;23.550;2022-11-18T02:44:32;96010.09;;;10.74;100.00
21361;BME280;10839;43.206;23.550;2022-11-18T02:47:05;96011.72;;;10.75;100.00
21361;BME280;10839;43.206;23.550;2022-11-18T02:49:51;96011.81;;;10.86;100.00
21361;BME280;10839;43.206;23.550;2022-11-18T02:52:20;96012.25;;;11.01;100.00
21361;BME280;10839;43.206;23.550;2022-11-18T02:54:48;96018.31;;;10.97;100.00
21361;BME280;10839;43.206;23.550;2022-11-18T02:57:18;96020.84;;;10.56;100.00
21361;BME280;10839;43.206;23.550;2022-11-18T02:59:45;96015.16;;;10.46;100.00
21361;BME280;10839;43.206;23.550;2022-11-18T03:02:15;96016.78;;;10.47;100.00
21361;BME280;10839;43.206;23.550;2022-11-18T03:04:42;96010.22;;;10.43;100.00
21361;BME280;10839;43.206;23.550;2022-11-18T03:07:17;96020.69;;;10.51;100.00
21361;BME280;10839;43.206;23.550;2022-11-18T03:09:46;96020.31;;;10.65;100.00
21361;BME280;10839;43.206;23.550;2022-11-18T03:14:56;96026.84;;;10.76;100.00
21361;BME280;10839;43.206;23.550;2022-11-18T03:18:06;96012.03;;;10.85;100.00
21361;BME280;10839;43.206;23.550;2022-11-18T03:20:44;96015.03;;;10.95;100.00
21361;BME280;10839;43.206;23.550;2022-11-18T03:23:21;96010.72;;;10.76;100.00
21361;BME280;10839;43.206;23.550;2022-11-18T03:26:28;96015.63;;;10.79;100.00
21361;BME280;10839;43.206;23.550;2022-11-18T03:34:04;95999.38;;;11.21;100.00
21361;BME280;10839;43.206;23.550;2022-11-18T03:36:34;96001.69;;;11.36;100.00
21361;BME280;10839;43.206;23.550;2022-11-18T03:39:04;96009.75;;;11.18;100.00
21361;BME280;10839;43.206;23.550;2022-11-18T03:41:37;96003.84;;;10.98;100.00
21361;BME280;10839;43.206;23.550;2022-11-18T03:44:12;95996.56;;;11.46;98.95
21361;BME280;10839;43.206;23.550;2022-11-18T03:46:44;95994.81;;;11.81;95.42
21361;BME280;10839;43.206;23.550;2022-11-18T03:49:25;95996.28;;;12.18;91.27
21361;BME280;10839;43.206;23.550;2022-11-18T03:52:09;95993.94;;;12.10;92.52
21361;BME280;10839;43.206;23.550;2022-11-18T03:54:39;95998.91;;;11.72;96.72
21361;BME280;10839;43.206;23.550;2022-11-18T03:57:11;96002.97;;;11.15;100.00
21361;BME280;10839;43.206;23.550;2022-11-18T03:59:52;96005.13;;;11.25;100.00
21361;BME280;10839;43.206;23.550;2022-11-18T04:02:25;96007.09;;;11.00;100.00
21361;BME280;10839;43.206;23.550;2022-11-18T04:04:56;96008.91;;;10.88;100.00
21361;BME280;10839;43.206;23.550;2022-11-18T04:10:08;96010.09;;;10.56;100.00
21361;BME280;10839;43.206;23.550;2022-11-18T04:12:41;95996.34;;;10.64;100.00
21361;BME280;10839;43.206;23.550;2022-11-18T04:15:08;96008.38;;;10.79;100.00
21361;BME280;10839;43.206;23.550;2022-11-18T04:17:34;96001.13;;;10.80;100.00
21361;BME280;10839;43.206;23.550;2022-11-18T04:20:00;95997.41;;;10.81;100.00
21361;BME280;10839;43.206;23.550;2022-11-18T04:22:26;96008.63;;;10.78;100.00
21361;BME280;10839;43.206;23.550;2022-11-18T04:24:52;96015.31;;;10.69;100.00
21361;BME280;10839;43.206;23.550;2022-11-18T04:27:18;96007.25;;;10.87;100.00
21361;BME280;10839;43.206;23.550;2022-11-18T04:29:44;96006.59;;;11.09;100.00
21361;BME280;10839;43.206;23.550;2022-11-18T04:32:10;95999.56;;;11.38;100.00
21361;BME280;10839;43.206;23.550;2022-11-18T04:34:36;96008.25;;;11.40;100.00
21361;BME280;10839;43.206;23.550;2022-11-18T04:37:03;95995.72;;;11.16;100.00
21361;BME280;10839;43.206;23.550;2022-11-18T04:39:29;96010.22;;;11.15;100.00
21361;BME280;10839;43.206;23.550;2022-11-18T04:41:55;96002.47;;;11.07;100.00
21361;BME280;10839;43.206;23.550;2022-11-18T04:44:29;96012.59;;;11.23;100.00
21361;BME280;10839;43.206;23.550;2022-11-18T04:46:56;96009.03;;;11.29;100.00
21361;BME280;10839;43.206;23.550;2022-11-18T04:49:24;96013.94;;;11.32;100.00
21361;BME280;10839;43.206;23.550;2022-11-18T04:51:51;96023.38;;;11.23;100.00
21361;BME280;10839;43.206;23.550;2022-11-18T04:54:18;96025.22;;;11.40;100.00
21361;BME280;10839;43.206;23.550;2022-11-18T04:56:45;96017.38;;;11.39;100.00
21361;BME280;10839;43.206;23.550;2022-11-18T04:59:12;96019.00;;;11.10;100.00
21361;BME280;10839;43.206;23.550;2022-11-18T05:01:39;96022.88;;;10.96;100.00
21361;BME280;10839;43.206;23.550;2022-11-18T05:04:05;96018.16;;;10.92;100.00
21361;BME280;10839;43.206;23.550;2022-11-18T05:06:48;96013.41;;;10.76;100.00
21361;BME280;10839;43.206;23.550;2022-11-18T05:09:16;96010.09;;;10.74;100.00
21361;BME280;10839;43.206;23.550;2022-11-18T05:11:45;96006.97;;;10.77;100.00
21361;BME280;10839;43.206;23.550;2022-11-18T05:14:30;96009.25;;;10.55;100.00
21361;BME280;10839;43.206;23.550;2022-11-18T05:16:58;96007.31;;;10.44;100.00
21361;BME280;10839;43.206;23.550;2022-11-18T05:19:25;96008.59;;;10.60;100.00
21361;BME280;10839;43.206;23.550;2022-11-18T05:21:52;96013.22;;;10.53;100.00
21361;BME280;10839;43.206;23.550;2022-11-18T05:24:19;96014.09;;;10.47;100.00
21361;BME280;10839;43.206;23.550;2022-11-18T05:26:52;96008.56;;;10.42;100.00
21361;BME280;10839;43.206;23.550;2022-11-18T05:29:21;96004.56;;;10.69;100.00
21361;BME280;10839;43.206;23.550;2022-11-18T05:31:48;96002.28;;;11.20;100.00
21361;BME280;10839;43.206;23.550;2022-11-18T05:34:14;96012.72;;;11.64;98.30
21361;BME280;10839;43.206;23.550;2022-11-18T05:36:41;96008.84;;;12.70;90.12
21361;BME280;10839;43.206;23.550;2022-11-18T05:39:07;96012.72;;;13.93;83.07
21361;BME280;10839;43.206;23.550;2022-11-18T05:41:54;96006.03;;;14.62;75.17
21361;BME280;10839;43.206;23.550;2022-11-18T05:44:38;96019.66;;;15.44;71.60
21361;BME280;10839;43.206;23.550;2022-11-18T05:47:04;96017.84;;;15.32;73.89
21361;BME280;10839;43.206;23.550;2022-11-18T05:49:31;96021.88;;;15.47;72.21
21361;BME280;10839;43.206;23.550;2022-11-18T05:51:58;96019.06;;;16.43;69.07
21361;BME280;10839;43.206;23.550;2022-11-18T05:54:24;96021.50;;;17.69;63.80
21361;BME280;10839;43.206;23.550;2022-11-18T05:56:53;96017.50;;;18.07;61.07
21361;BME280;10839;43.206;23.550;2022-11-18T05:59:19;96014.84;;;18.67;56.86
21361;BME280;10839;43.206;23.550;2022-11-18T06:01:52;96024.38;;;18.60;56.86
21361;BME280;10839;43.206;23.550;2022-11-18T06:06:53;96021.03;;;21.13;46.51
21361;BME280;10839;43.206;23.550;2022-11-18T06:09:22;96010.94;;;21.84;46.36
21361;BME280;10839;43.206;23.550;2022-11-18T06:11:54;96010.47;;;19.85;51.11
21361;BME280;10839;43.206;23.550;2022-11-18T06:14:26;96004.34;;;21.38;47.85
21361;BME280;10839;43.206;23.550;2022-11-18T06:17:00;96015.91;;;22.19;45.20
21361;BME280;10839;43.206;23.550;2022-11-18T06:19:27;96012.88;;;22.76;44.08
21361;BME280;10839;43.206;23.550;2022-11-18T06:21:53;96011.75;;;23.10;44.48
21361;BME280;10839;43.206;23.550;2022-11-18T06:24:19;96023.03;;;23.67;41.30
21361;BME280;10839;43.206;23.550;2022-11-18T06:26:46;96020.81;;;25.25;38.35
21361;BME280;10839;43.206;23.550;2022-11-18T06:29:14;96026.34;;;24.81;39.56
21361;BME280;10839;43.206;23.550;2022-11-18T06:31:42;96023.88;;;25.77;37.70
21361;BME280;10839;43.206;23.550;2022-11-18T06:34:08;96014.41;;;26.17;36.33
21361;BME280;10839;43.206;23.550;2022-11-18T06:36:35;96019.66;;;24.38;39.55
21361;BME280;10839;43.206;23.550;2022-11-18T06:39:03;96012.63;;;23.24;41.19
21361;BME280;10839;43.206;23.550;2022-11-18T06:41:30;96019.91;;;23.15;41.18
21361;BME280;10839;43.206;23.550;2022-11-18T06:43:56;96022.69;;;22.96;40.86
21361;BME280;10839;43.206;23.550;2022-11-18T06:46:24;96022.84;;;23.91;39.31
21361;BME280;10839;43.206;23.550;2022-11-18T06:49:09;96024.28;;;25.62;36.57
21361;BME280;10839;43.206;23.550;2022-11-18T06:51:36;96025.84;;;24.44;38.10
21361;BME280;10839;43.206;23.550;2022-11-18T06:54:02;96030.19;;;23.55;39.65
21361;BME280;10839;43.206;23.550;2022-11-18T06:56:28;96032.63;;;23.70;39.85
21361;BME280;10839;43.206;23.550;2022-11-18T06:58:56;96036.91;;;24.03;39.02
21361;BME280;10839;43.206;23.550;2022-11-18T07:01:25;96025.84;;;24.44;38.70
21361;BME280;10839;43.206;23.550;2022-11-18T07:04:03;96025.03;;;25.01;37.25
21361;BME280;10839;43.206;23.550;2022-11-18T07:06:42;96049.03;;;24.51;38.39
21361;BME280;10839;43.206;23.550;2022-11-18T07:09:10;96042.00;;;25.39;36.75
21361;BME280;10839;43.206;23.550;2022-11-18T07:11:41;96037.84;;;26.28;35.65
21361;BME280;10839;43.206;23.550;2022-11-18T07:14:09;96039.72;;;25.41;37.56
21361;BME280;10839;43.206;23.550;2022-11-18T07:16:53;96036.19;;;24.11;38.53
21361;BME280;10839;43.206;23.550;2022-11-18T07:19:28;96018.44;;;24.66;38.29
21361;BME280;10839;43.206;23.550;2022-11-18T07:21:58;96025.03;;;24.43;38.35
21361;BME280;10839;43.206;23.550;2022-11-18T07:27:42;96020.34;;;25.01;37.66
21361;BME280;10839;43.206;23.550;2022-11-18T07:30:08;96023.41;;;22.88;40.69
21361;BME280;10839;43.206;23.550;2022-11-18T07:32:35;96012.75;;;22.49;42.03
21361;BME280;10839;43.206;23.550;2022-11-18T07:35:01;96016.16;;;22.41;42.34
21361;BME280;10839;43.206;23.550;2022-11-18T07:37:27;96016.13;;;21.10;44.28
21361;BME280;10839;43.206;23.550;2022-11-18T07:39:53;96010.78;;;20.95;45.35
21361;BME280;10839;43.206;23.550;2022-11-18T07:42:20;96018.03;;;19.98;48.16
21361;BME280;10839;43.206;23.550;2022-11-18T07:44:49;96016.97;;;20.77;46.14
21361;BME280;10839;43.206;23.550;2022-11-18T07:47:15;96016.72;;;21.59;44.86
21361;BME280;10839;43.206;23.550;2022-11-18T07:49:42;96007.75;;;22.89;41.82
21361;BME280;10839;43.206;23.550;2022-11-18T07:52:08;96011.19;;;22.81;41.91
21361;BME280;10839;43.206;23.550;2022-11-18T07:54:34;96014.78;;;21.36;44.30
21361;BME280;10839;43.206;23.550;2022-11-18T07:57:03;96012.25;;;21.16;45.35
21361;BME280;10839;43.206;23.550;2022-11-18T07:59:29;96007.56;;;22.66;42.86
21361;BME280;10839;43.206;23.550;2022-11-18T08:01:55;95997.69;;;22.98;41.60
21361;BME280;10839;43.206;23.550;2022-11-18T08:04:22;95985.09;;;23.56;40.43
21361;BME280;10839;43.206;23.550;2022-11-18T08:06:49;95967.03;;;23.23;40.35
21361;BME280;10839;43.206;23.550;2022-11-18T08:09:15;95964.75;;;23.30;40.30
21361;BME280;10839;43.206;23.550;2022-11-18T08:11:41;95955.63;;;22.89;40.73
21361;BME280;10839;43.206;23.550;2022-11-18T08:14:08;95969.16;;;21.50;44.76
21361;BME280;10839;43.206;23.550;2022-11-18T08:16:34;95977.28;;;20.51;48.38
21361;BME280;10839;43.206;23.550;2022-11-18T08:19:11;95984.53;;;20.94;47.24
21361;BME280;10839;43.206;23.550;2022-11-18T08:21:37;95968.28;;;20.06;48.74
21361;BME280;10839;43.206;23.550;2022-11-18T08:24:04;95964.09;;;20.58;46.04
21361;BME280;10839;43.206;23.550;2022-11-18T08:26:30;95969.41;;;20.44;47.27
21361;BME280;10839;43.206;23.550;2022-11-18T08:29:07;95980.50;;;19.70;48.34
21361;BME280;10839;43.206;23.550;2022-11-18T08:31:33;95966.84;;;19.75;47.91
21361;BME280;10839;43.206;23.550;2022-11-18T08:34:02;95960.75;;;19.88;47.72
21361;BME280;10839;43.206;23.550;2022-11-18T08:36:31;95945.94;;;19.99;47.37
21361;BME280;10839;43.206;23.550;2022-11-18T08:38:59;95946.06;;;20.57;46.28
21361;BME280;10839;43.206;23.550;2022-11-18T08:41:40;95927.09;;;21.22;44.99
21361;BME280;10839;43.206;23.550;2022-11-18T08:44:33;95951.78;;;21.41;44.68
21361;BME280;10839;43.206;23.550;2022-11-18T08:47:01;95935.22;;;20.47;47.04
21361;BME280;10839;43.206;23.550;2022-11-18T08:49:28;95916.25;;;21.97;44.50
21361;BME280;10839;43.206;23.550;2022-11-18T08:51:54;95900.22;;;22.87;42.09
21361;BME280;10839;43.206;23.550;2022-11-18T08:54:20;95894.50;;;22.37;43.09
21361;BME280;10839;43.206;23.550;2022-11-18T09:03:29;95881.00;;;24.17;41.72
21361;BME280;10839;43.206;23.550;2022-11-18T09:06:07;95861.97;;;22.31;44.53
21361;BME280;10839;43.206;23.550;2022-11-18T09:08:34;95862.97;;;22.21;45.47
21361;BME280;10839;43.206;23.550;2022-11-18T09:11:08;95867.47;;;21.80;46.16
21361;BME280;10839;43.206;23.550;2022-11-18T09:14:12;95840.09;;;22.44;43.96
21361;BME280;10839;43.206;23.550;2022-11-18T09:16:38;95860.75;;;22.23;44.49
21361;BME280;10839;43.206;23.550;2022-11-18T09:19:04;95834.59;;;21.80;41.61
21361;BME280;10839;43.206;23.550;2022-11-18T09:21:31;95854.13;;;21.55;44.95
21361;BME280;10839;43.206;23.550;2022-11-18T09:23:57;95838.25;;;21.15;46.92
21361;BME280;10839;43.206;23.550;2022-11-18T09:26:24;95855.88;;;21.46;46.74
21361;BME280;10839;43.206;23.550;2022-11-18T09:28:53;95855.88;;;22.20;45.46
21361;BME280;10839;43.206;23.550;2022-11-18T09:31:19;95840.78;;;23.23;41.04
21361;BME280;10839;43.206;23.550;2022-11-18T09:33:45;95868.38;;;24.16;39.55
21361;BME280;10839;43.206;23.550;2022-11-18T09:36:21;95851.13;;;23.53;38.51
21361;BME280;10839;43.206;23.550;2022-11-18T09:38:47;95866.44;;;23.81;37.89
21361;BME280;10839;43.206;23.550;2022-11-18T09:41:45;95830.22;;;23.30;38.63
21361;BME280;10839;43.206;23.550;2022-11-18T09:47:30;95817.00;;;23.05;38.48
21361;BME280;10839;43.206;23.550;2022-11-18T09:50:05;95785.31;;;22.99;38.57
21361;BME280;10839;43.206;23.550;2022-11-18T09:55:37;95802.19;;;22.92;38.56
21361;BME280;10839;43.206;23.550;2022-11-18T09:58:24;95804.63;;;22.94;38.35
21361;BME280;10839;43.206;23.550;2022-11-18T10:00:53;95775.91;;;22.32;40.02
21361;BME280;10839;43.206;23.550;2022-11-18T10:07:19;95798.53;;;22.97;39.42
21361;BME280;10839;43.206;23.550;2022-11-18T10:09:50;95777.03;;;22.44;39.89
21361;BME280;10839;43.206;23.550;2022-11-18T10:12:39;95773.09;;;23.32;38.93
21361;BME280;10839;43.206;23.550;2022-11-18T10:15:45;95778.59;;;22.77;39.28
21361;BME280;10839;43.206;23.550;2022-11-18T10:18:52;95765.00;;;22.59;39.75
21361;BME280;10839;43.206;23.550;2022-11-18T10:21:31;95779.53;;;22.87;39.50
21361;BME280;10839;43.206;23.550;2022-11-18T10:24:09;95777.84;;;23.40;38.91
21361;BME280;10839;43.206;23.550;2022-11-18T10:26:56;95779.75;;;22.17;40.72
21361;BME280;10839;43.206;23.550;2022-11-18T10:29:24;95754.53;;;22.02;40.99
21361;BME280;10839;43.206;23.550;2022-11-18T10:32:00;95767.72;;;21.49;42.26
21361;BME280;10839;43.206;23.550;2022-11-18T10:38:03;95773.38;;;21.90;41.14
21361;BME280;10839;43.206;23.550;2022-11-18T10:40:30;95765.38;;;22.39;40.73
21361;BME280;10839;43.206;23.550;2022-11-18T10:42:57;95768.19;;;22.20;40.60
21361;BME280;10839;43.206;23.550;2022-11-18T10:45:31;95757.19;;;22.07;40.92
21361;BME280;10839;43.206;23.550;2022-11-18T10:50:55;95752.91;;;21.50;41.47
21361;BME280;10839;43.206;23.550;2022-11-18T10:53:48;95759.69;;;20.97;42.47
21361;BME280;10839;43.206;23.550;2022-11-18T11:00:00;95733.97;;;21.35;42.33
21361;BME280;10839;43.206;23.550;2022-11-18T11:02:38;95740.59;;;20.92;43.05
21361;BME280;10839;43.206;23.550;2022-11-18T11:05:22;95731.84;;;21.13;42.87
21361;BME280;10839;43.206;23.550;2022-11-18T11:08:05;95726.53;;;20.80;43.07
21361;BME280;10839;43.206;23.550;2022-11-18T11:10:56;95719.81;;;20.72;43.42
21361;BME280;10839;43.206;23.550;2022-11-18T11:13:28;95717.59;;;20.93;43.28
21361;BME280;10839;43.206;23.550;2022-11-18T11:15:59;95740.63;;;20.68;44.05
21361;BME280;10839;43.206;23.550;2022-11-18T11:18:33;95733.16;;;20.55;44.27
21361;BME280;10839;43.206;23.550;2022-11-18T11:21:19;95737.53;;;20.33;44.75
21361;BME280;10839;43.206;23.550;2022-11-18T11:23:47;95726.72;;;20.22;45.00
21361;BME280;10839;43.206;23.550;2022-11-18T11:30:20;95707.84;;;20.45;44.89
21361;BME280;10839;43.206;23.550;2022-11-18T11:38:11;95697.25;;;20.62;44.86
21361;BME280;10839;43.206;23.550;2022-11-18T11:43:41;95701.81;;;20.48;45.11
21361;BME280;10839;43.206;23.550;2022-11-18T11:47:16;95678.44;;;19.89;46.36
21361;BME280;10839;43.206;23.550;2022-11-18T11:53:02;95675.91;;;20.21;46.08
21361;BME280;10839;43.206;23.550;2022-11-18T12:01:17;95695.59;;;20.18;45.91
21361;BME280;10839;43.206;23.550;2022-11-18T12:04:11;95700.28;;;20.13;45.47
21361;BME280;10839;43.206;23.550;2022-11-18T12:06:34;95707.94;;;19.87;46.17
21361;BME280;10839;43.206;23.550;2022-11-18T12:15:41;95685.28;;;20.10;46.39
21361;BME280;10839;43.206;23.550;2022-11-18T12:24:30;95656.94;;;19.83;46.98
21361;BME280;10839;43.206;23.550;2022-11-18T12:27:02;95653.56;;;20.14;46.18
21361;BME280;10839;43.206;23.550;2022-11-18T12:40:03;95670.06;;;20.52;45.69
21361;BME280;10839;43.206;23.550;2022-11-18T12:59:50;95642.13;;;20.55;45.72
21361;BME280;10839;43.206;23.550;2022-11-18T13:05:11;95636.63;;;20.17;46.54
21361;BME280;10839;43.206;23.550;2022-11-18T13:07:43;95619.75;;;20.10;47.11
21361;BME280;10839;43.206;23.550;2022-11-18T13:10:31;95601.94;;;20.37;46.76
21361;BME280;10839;43.206;23.550;2022-11-18T13:13:31;95600.09;;;20.32;46.97
21361;BME280;10839;43.206;23.550;2022-11-18T13:16:31;95601.28;;;20.26;47.09
21361;BME280;10839;43.206;23.550;2022-11-18T13:19:24;95590.13;;;20.22;47.01
21361;BME280;10839;43.206;23.550;2022-11-18T13:21:57;95583.47;;;20.28;46.76
21361;BME280;10839;43.206;23.550;2022-11-18T13:24:44;95576.53;;;19.70;47.81
21361;BME280;10839;43.206;23.550;2022-11-18T13:30:17;95561.09;;;19.84;47.71
21361;BME280;10839;43.206;23.550;2022-11-18T13:32:45;95549.13;;;19.80;47.81
21361;BME280;10839;43.206;23.550;2022-11-18T13:35:23;95565.75;;;19.60;48.28
21361;BME280;10839;43.206;23.550;2022-11-18T13:38:03;95540.53;;;19.68;48.12
21361;BME280;10839;43.206;23.550;2022-11-18T13:40:59;95523.19;;;19.59;47.91
21361;BME280;10839;43.206;23.550;2022-11-18T13:43:37;95528.34;;;19.37;49.08
21361;BME280;10839;43.206;23.550;2022-11-18T13:49:02;95556.00;;;19.54;48.78
21361;BME280;10839;43.206;23.550;2022-11-18T13:51:28;95552.50;;;19.72;48.27
21361;BME280;10839;43.206;23.550;2022-11-18T13:53:55;95536.41;;;19.47;48.67
21361;BME280;10839;43.206;23.550;2022-11-18T13:56:25;95547.63;;;19.69;48.35
21361;BME280;10839;43.206;23.550;2022-11-18T13:58:57;95541.00;;;19.75;47.95
21361;BME280;10839;43.206;23.550;2022-11-18T14:01:33;95516.84;;;19.40;48.97
21361;BME280;10839;43.206;23.550;2022-11-18T14:04:02;95537.88;;;19.40;48.85
21361;BME280;10839;43.206;23.550;2022-11-18T14:06:32;95545.19;;;19.44;48.88
21361;BME280;10839;43.206;23.550;2022-11-18T14:09:25;95544.06;;;19.45;48.68
21361;BME280;10839;43.206;23.550;2022-11-18T14:14:41;95543.91;;;19.37;48.87
21361;BME280;10839;43.206;23.550;2022-11-18T14:17:17;95561.03;;;19.42;48.27
21361;BME280;10839;43.206;23.550;2022-11-18T14:19:45;95557.66;;;19.22;48.64
21361;BME280;10839;43.206;23.550;2022-11-18T14:22:24;95523.03;;;19.22;48.92
21361;BME280;10839;43.206;23.550;2022-11-18T14:25:46;95517.00;;;19.25;48.74
21361;BME280;10839;43.206;23.550;2022-11-18T14:27:51;95540.75;;;19.48;48.75
21361;BME280;10839;43.206;23.550;2022-11-18T14:33:21;95542.88;;;19.33;48.82
21361;BME280;10839;43.206;23.550;2022-11-18T14:38:18;95521.09;;;18.99;49.73
21361;BME280;10839;43.206;23.550;2022-11-18T14:40:45;95550.34;;;19.17;49.24
21361;BME280;10839;43.206;23.550;2022-11-18T14:46:59;95579.56;;;19.11;49.78
21361;BME280;10839;43.206;23.550;2022-11-18T14:49:26;95531.31;;;19.12;49.97
21361;BME280;10839;43.206;23.550;2022-11-18T14:55:00;95501.56;;;18.87;50.95
21361;BME280;10839;43.206;23.550;2022-11-18T14:57:26;95531.31;;;19.12;50.53
21361;BME280;10839;43.206;23.550;2022-11-18T14:59:52;95533.22;;;19.11;50.39
21361;BME280;10839;43.206;23.550;2022-11-18T15:02:19;95563.78;;;19.08;50.92
21361;BME280;10839;43.206;23.550;2022-11-18T15:04:45;95522.69;;;19.00;51.14
21361;BME280;10839;43.206;23.550;2022-11-18T15:07:12;95540.41;;;19.02;51.46
21361;BME280;10839;43.206;23.550;2022-11-18T15:09:40;95532.00;;;18.99;51.01
21361;BME280;10839;43.206;23.550;2022-11-18T15:12:07;95514.56;;;18.95;51.52
21361;BME280;10839;43.206;23.550;2022-11-18T15:14:34;95529.69;;;19.11;50.82
21361;BME280;10839;43.206;23.550;2022-11-18T15:17:03;95553.59;;;19.19;50.45
21361;BME280;10839;43.206;23.550;2022-11-18T15:19:30;95550.34;;;19.17;50.54
21361;BME280;10839;43.206;23.550;2022-11-18T15:21:56;95552.63;;;19.05;50.85
21361;BME280;10839;43.206;23.550;2022-11-18T15:24:22;95570.56;;;19.16;50.65
21361;BME280;10839;43.206;23.550;2022-11-18T15:26:49;95568.06;;;19.20;50.44
21361;BME280;10839;43.206;23.550;2022-11-18T15:29:18;95563.00;;;19.08;51.03
21361;BME280;10839;43.206;23.550;2022-11-18T15:31:45;95567.38;;;19.04;51.87